Time;durP1;ratioP1;P1;durP2;ratioP2;P2;SDS_P1;SDS_P2;PMS_P1;PMS_P2;Temp;Humidity;BMP_temperature;BMP_pressure;BME280_temperature;BME280_humidity;BME280_pressure;Samples;Min_cycle;Max_cycle;Signal;HPM_P1;HPM_P2
2023/10/28 04:06:20;;;;;;;0.30;0.30;;;11.10;99.90;;;;;;5367232;23;20231;-60
2023/10/28 04:08:46;;;;;;;0.30;0.30;;;11.10;99.90;;;;;;4974629;28;20189;-60
2023/10/28 04:11:11;;;;;;;0.30;0.30;;;11.10;99.90;;;;;;4974637;28;20658;-60
2023/10/28 04:13:37;;;;;;;0.30;0.30;;;11.10;99.90;;;;;;4956807;28;20182;-61
2023/10/28 04:16:03;;;;;;;0.30;0.30;;;11.10;99.90;;;;;;4954876;29;20575;-61
2023/10/28 04:18:29;;;;;;;0.30;0.30;;;11.20;99.90;;;;;;4955182;29;20231;-63
2023/10/28 04:20:54;;;;;;;0.30;0.20;;;11.20;99.90;;;;;;4955338;29;20178;-63
2023/10/28 04:23:21;;;;;;;0.30;0.30;;;11.30;99.90;;;;;;4955121;29;20202;-62
2023/10/28 04:25:47;;;;;;;0.30;0.30;;;11.30;99.90;;;;;;4972048;28;20207;-61
2023/10/28 04:28:12;;;;;;;0.30;0.20;;;11.30;99.90;;;;;;4974670;28;20630;-61
2023/10/28 04:30:38;;;;;;;0.30;0.20;;;11.30;99.90;;;;;;4974341;28;20406;-61
2023/10/28 04:33:05;;;;;;;0.30;0.20;;;11.30;99.90;;;;;;4974506;28;20232;-62
2023/10/28 04:35:31;;;;;;;0.30;0.30;;;11.30;99.90;;;;;;4972668;28;20201;-61
2023/10/28 04:37:56;;;;;;;0.30;0.30;;;11.40;99.90;;;;;;4974636;28;20185;-61
2023/10/28 04:40:22;;;;;;;0.30;0.30;;;11.40;99.90;;;;;;4978158;28;20563;-62
2023/10/28 04:42:48;;;;;;;0.30;0.20;;;11.40;99.90;;;;;;4978134;28;20174;-61
2023/10/28 04:45:13;;;;;;;0.30;0.30;;;11.40;99.90;;;;;;4977818;28;20215;-62
2023/10/28 04:47:39;;;;;;;0.30;0.20;;;11.50;99.90;;;;;;4978182;28;20216;-62
2023/10/28 04:50:05;;;;;;;0.30;0.20;;;11.40;99.90;;;;;;4978317;28;20166;-62
2023/10/28 04:52:31;;;;;;;0.30;0.20;;;11.40;99.90;;;;;;4978313;28;20192;-62
2023/10/28 04:54:59;;;;;;;0.33;0.33;;;11.40;99.90;;;;;;4977513;28;20205;-61
2023/10/28 04:57:25;;;;;;;0.30;0.30;;;11.40;99.90;;;;;;4977951;28;20188;-62
2023/10/28 04:59:50;;;;;;;0.30;0.20;;;11.30;99.90;;;;;;4977919;28;20263;-62
2023/10/28 05:02:16;;;;;;;0.30;0.20;;;11.30;99.90;;;;;;4978165;28;20170;-61
2023/10/28 05:04:41;;;;;;;0.30;0.30;;;11.20;99.90;;;;;;4977604;28;20205;-62
2023/10/28 05:07:07;;;;;;;0.30;0.20;;;11.20;99.90;;;;;;4978226;28;20247;-62
2023/10/28 05:09:33;;;;;;;0.30;0.30;;;11.20;99.90;;;;;;4960673;28;20566;-62
2023/10/28 05:12:00;;;;;;;0.30;0.30;;;11.20;99.90;;;;;;4977602;28;20172;-60
2023/10/28 05:14:25;;;;;;;0.30;0.30;;;11.20;99.90;;;;;;4977472;28;20304;-62
2023/10/28 05:16:52;;;;;;;0.30;0.30;;;11.10;99.90;;;;;;4977642;28;20273;-61
2023/10/28 05:19:21;;;;;;;0.30;0.20;;;11.10;99.90;;;;;;4977604;28;20169;-62
2023/10/28 05:21:47;;;;;;;0.30;0.20;;;11.10;99.90;;;;;;4977553;28;20182;-61
2023/10/28 05:24:13;;;;;;;0.30;0.30;;;11.20;99.90;;;;;;4977016;28;20289;-61
2023/10/28 05:26:39;;;;;;;0.30;0.30;;;11.20;99.90;;;;;;4962395;28;20292;-62
2023/10/28 05:29:04;;;;;;;0.30;0.20;;;11.20;99.90;;;;;;4960677;28;20880;-63
2023/10/28 05:31:30;;;;;;;0.30;0.30;;;11.10;99.90;;;;;;4958317;29;20547;-63
2023/10/28 05:33:55;;;;;;;0.30;0.30;;;11.10;99.90;;;;;;4957738;29;20265;-61
2023/10/28 05:36:22;;;;;;;0.30;0.30;;;11.10;99.90;;;;;;4958221;28;20201;-62
2023/10/28 05:38:48;;;;;;;0.30;0.30;;;11.00;99.90;;;;;;4957525;29;20184;-61
2023/10/28 05:41:13;;;;;;;0.30;0.30;;;10.90;99.90;;;;;;4967833;28;20185;-60
2023/10/28 05:43:39;;;;;;;0.30;0.20;;;10.90;99.90;;;;;;4976455;28;20196;-60
2023/10/28 05:46:04;;;;;;;0.30;0.30;;;11.00;99.90;;;;;;4970395;28;20193;-62
2023/10/28 05:48:32;;;;;;;0.30;0.30;;;10.90;99.90;;;;;;4957900;29;20174;-62
2023/10/28 05:50:58;;;;;;;0.30;0.30;;;10.90;99.90;;;;;;4956870;28;20181;-62
2023/10/28 05:53:24;;;;;;;0.30;0.20;;;10.90;99.90;;;;;;4957510;29;20576;-61
2023/10/28 05:55:50;;;;;;;0.30;0.20;;;10.90;99.90;;;;;;4957218;29;20469;-60
2023/10/28 05:58:16;;;;;;;0.30;0.30;;;11.00;99.90;;;;;;4963457;28;20442;-62
2023/10/28 06:00:42;;;;;;;0.40;0.40;;;11.00;99.90;;;;;;4977036;28;20232;-62
2023/10/28 06:03:08;;;;;;;0.30;0.30;;;11.10;99.90;;;;;;4976723;28;20589;-61
2023/10/28 06:05:35;;;;;;;0.30;0.30;;;11.10;99.90;;;;;;4976260;28;20196;-60
2023/10/28 06:08:00;;;;;;;0.30;0.20;;;11.00;99.90;;;;;;4966837;28;20420;-60
2023/10/28 06:10:26;;;;;;;0.30;0.20;;;11.10;99.90;;;;;;4957394;29;20632;-61
2023/10/28 06:12:52;;;;;;;0.30;0.27;;;11.10;99.90;;;;;;4957352;29;20692;-61
2023/10/28 06:15:17;;;;;;;0.30;0.20;;;11.10;99.90;;;;;;4956703;29;20249;-62
2023/10/28 06:17:45;;;;;;;0.30;0.20;;;11.20;99.90;;;;;;4965277;28;20656;-61
2023/10/28 06:20:11;;;;;;;0.30;0.30;;;11.30;99.90;;;;;;4976504;28;20647;-65
2023/10/28 06:22:37;;;;;;;0.30;0.20;;;11.40;99.90;;;;;;4976496;28;20573;-63
2023/10/28 06:25:04;;;;;;;0.30;0.20;;;11.40;99.90;;;;;;4975259;28;20469;-64
2023/10/28 06:27:33;;;;;;;0.30;0.30;;;11.50;99.90;;;;;;4975863;28;20194;-64
2023/10/28 06:29:59;;;;;;;0.30;0.20;;;11.60;99.90;;;;;;4976303;28;20556;-64
2023/10/28 06:32:27;;;;;;;0.30;0.20;;;11.60;99.90;;;;;;4976083;28;20175;-64
2023/10/28 06:34:54;;;;;;;0.30;0.30;;;11.70;99.90;;;;;;4975700;28;20196;-65
2023/10/28 06:37:20;;;;;;;0.30;0.30;;;11.80;99.90;;;;;;4976180;28;20621;-66
2023/10/28 06:39:47;;;;;;;0.30;0.20;;;11.90;99.90;;;;;;4975583;28;20191;-67
2023/10/28 06:42:13;;;;;;;0.30;0.30;;;12.00;99.90;;;;;;4975788;28;20228;-64
2023/10/28 06:44:38;;;;;;;0.30;0.30;;;12.00;99.90;;;;;;4975421;28;20213;-63
2023/10/28 06:47:04;;;;;;;0.30;0.30;;;12.10;99.90;;;;;;4975599;28;20418;-65
2023/10/28 06:49:31;;;;;;;0.30;0.30;;;12.20;99.90;;;;;;4976001;28;20175;-63
2023/10/28 06:52:00;;;;;;;0.30;0.30;;;12.30;99.90;;;;;;4975775;28;20518;-65
2023/10/28 06:54:25;;;;;;;0.30;0.20;;;12.30;99.90;;;;;;4974633;28;20784;-65
2023/10/28 06:56:51;;;;;;;0.30;0.30;;;12.40;99.90;;;;;;4975485;28;20447;-65
2023/10/28 06:59:17;;;;;;;0.30;0.30;;;12.40;99.90;;;;;;4975628;28;20924;-66
2023/10/28 07:01:43;;;;;;;0.30;0.30;;;12.50;99.90;;;;;;4975192;28;20513;-64
2023/10/28 07:04:08;;;;;;;0.30;0.20;;;12.50;99.90;;;;;;4974902;28;20202;-61
2023/10/28 07:06:34;;;;;;;0.30;0.20;;;12.50;99.90;;;;;;4971575;28;20545;-64
2023/10/28 07:09:01;;;;;;;0.30;0.30;;;12.50;99.90;;;;;;4975110;28;20636;-62
2023/10/28 07:11:26;;;;;;;0.30;0.20;;;12.50;99.90;;;;;;4975041;28;20488;-64
2023/10/28 07:13:52;;;;;;;0.30;0.20;;;12.50;99.90;;;;;;4974971;28;20187;-64
2023/10/28 07:16:20;;;;;;;0.30;0.30;;;12.50;99.90;;;;;;4975054;28;20242;-62
2023/10/28 07:18:46;;;;;;;0.30;0.20;;;12.60;99.90;;;;;;4975129;28;20193;-62
2023/10/28 07:21:12;;;;;;;0.30;0.30;;;12.80;99.90;;;;;;4975249;28;20743;-66
2023/10/28 07:23:37;;;;;;;0.30;0.27;;;13.00;99.90;;;;;;4974927;28;20212;-62
2023/10/28 07:26:04;;;;;;;0.30;0.20;;;13.20;99.90;;;;;;4974675;28;20663;-67
2023/10/28 07:28:37;;;;;;;0.30;0.30;;;13.50;99.90;;;;;;4957428;28;20176;-69
2023/10/28 07:31:03;;;;;;;0.30;0.30;;;13.90;99.90;;;;;;4974433;28;20419;-68
2023/10/28 07:33:29;;;;;;;0.30;0.30;;;14.20;99.90;;;;;;4974657;28;20423;-67
2023/10/28 07:35:55;;;;;;;0.60;0.53;;;14.50;99.90;;;;;;4974450;28;20491;-65
2023/10/28 07:38:21;;;;;;;0.30;0.20;;;14.90;99.90;;;;;;4974788;28;20411;-66
2023/10/28 07:40:47;;;;;;;0.30;0.20;;;15.50;99.90;;;;;;4974315;28;20427;-67
2023/10/28 07:43:17;;;;;;;0.30;0.20;;;16.20;99.90;;;;;;4973501;28;20778;-69
2023/10/28 07:45:43;;;;;;;0.30;0.20;;;17.00;99.90;;;;;;4973912;28;20444;-69
2023/10/28 07:48:11;;;;;;;0.30;0.20;;;17.40;99.90;;;;;;4974270;28;21045;-70
2023/10/28 07:50:37;;;;;;;0.30;0.30;;;17.60;99.80;;;;;;4974345;28;20742;-68
2023/10/28 07:53:06;;;;;;;0.30;0.30;;;17.50;99.30;;;;;;4974638;28;20411;-68
2023/10/28 07:55:38;;;;;;;0.30;0.20;;;17.20;99.10;;;;;;4957028;28;20792;-67
2023/10/28 07:58:05;;;;;;;0.30;0.20;;;17.10;99.60;;;;;;4973674;28;20420;-63
2023/10/28 08:00:31;;;;;;;0.30;0.20;;;17.30;99.90;;;;;;4972545;28;20766;-66
2023/10/28 08:02:57;;;;;;;0.30;0.20;;;17.70;99.90;;;;;;4965657;28;20821;-64
2023/10/28 08:05:24;;;;;;;0.30;0.20;;;18.30;98.50;;;;;;4962646;28;20546;-63
2023/10/28 08:07:50;;;;;;;0.30;0.20;;;18.70;97.40;;;;;;4969938;28;20196;-63
2023/10/28 08:10:22;;;;;;;0.30;0.20;;;19.00;97.00;;;;;;4973466;28;20420;-65
2023/10/28 08:12:50;;;;;;;0.30;0.20;;;19.30;96.40;;;;;;4973352;28;20535;-65
2023/10/28 08:15:15;;;;;;;0.30;0.30;;;19.50;95.80;;;;;;4973579;28;20462;-64
2023/10/28 08:17:41;;;;;;;0.30;0.30;;;19.10;95.10;;;;;;4974250;28;20432;-63
2023/10/28 08:20:08;;;;;;;0.30;0.30;;;18.40;95.90;;;;;;4974474;28;20171;-62
2023/10/28 08:22:35;;;;;;;0.83;0.83;;;17.80;96.60;;;;;;4974545;28;20271;-62
2023/10/28 08:25:04;;;;;;;0.30;0.20;;;17.30;97.40;;;;;;4956501;28;21060;-65
2023/10/28 08:27:31;;;;;;;0.30;0.30;;;17.30;98.90;;;;;;4972304;28;20433;-68
2023/10/28 08:29:57;;;;;;;0.30;0.20;;;17.90;98.70;;;;;;4973697;28;20401;-68
2023/10/28 08:32:23;;;;;;;0.30;0.30;;;18.40;96.40;;;;;;4972951;28;20414;-68
2023/10/28 08:34:49;;;;;;;0.30;0.30;;;18.60;95.80;;;;;;4973583;28;20175;-69
2023/10/28 08:37:18;;;;;;;0.30;0.20;;;18.70;95.90;;;;;;4973591;28;20390;-65
2023/10/28 08:39:43;;;;;;;0.30;0.20;;;19.00;95.40;;;;;;4973463;28;20409;-63
2023/10/28 08:42:11;;;;;;;0.30;0.20;;;19.30;95.10;;;;;;4972828;28;20451;-63
2023/10/28 08:44:40;;;;;;;1.17;1.07;;;19.60;94.70;;;;;;4971258;28;20286;-69
2023/10/28 08:47:06;;;;;;;0.30;0.30;;;20.10;94.60;;;;;;4972171;28;20480;-69
2023/10/28 08:49:39;;;;;;;0.30;0.20;;;20.60;93.80;;;;;;4954717;28;20437;-69
2023/10/28 08:52:08;;;;;;;0.30;0.30;;;20.70;92.40;;;;;;4971861;28;20427;-67
2023/10/28 08:54:38;;;;;;;0.30;0.20;;;20.70;92.90;;;;;;4965350;28;20830;-68
2023/10/28 08:57:04;;;;;;;0.30;0.30;;;20.60;91.70;;;;;;4968205;28;20764;-64
2023/10/28 08:59:30;;;;;;;0.30;0.30;;;20.50;92.00;;;;;;4972786;28;20753;-63
2023/10/28 09:01:57;;;;;;;0.30;0.30;;;20.30;92.40;;;;;;4974185;28;20382;-63
2023/10/28 09:04:23;;;;;;;0.30;0.20;;;20.10;92.20;;;;;;4973258;28;20196;-68
2023/10/28 09:06:53;;;;;;;0.30;0.30;;;19.70;92.70;;;;;;4973601;28;20507;-64
2023/10/28 09:09:21;;;;;;;0.30;0.20;;;19.80;93.10;;;;;;4974103;28;20412;-65
2023/10/28 09:11:47;;;;;;;0.30;0.20;;;19.90;92.80;;;;;;4973610;28;20498;-67
2023/10/28 09:14:13;;;;;;;0.30;0.20;;;19.80;92.80;;;;;;4973394;28;20413;-65
2023/10/28 09:16:39;;;;;;;0.30;0.20;;;20.00;93.00;;;;;;4973967;28;20798;-65
2023/10/28 09:19:05;;;;;;;0.30;0.20;;;20.30;92.60;;;;;;4974111;28;20168;-67
2023/10/28 09:21:31;;;;;;;0.60;0.40;;;20.60;92.10;;;;;;4973881;28;20419;-68
2023/10/28 09:24:00;;;;;;;0.30;0.20;;;20.90;91.80;;;;;;4955914;28;20459;-68
2023/10/28 09:26:28;;;;;;;0.30;0.30;;;20.90;91.40;;;;;;4977054;28;20335;-65
2023/10/28 09:28:54;;;;;;;0.30;0.20;;;20.70;91.20;;;;;;4977417;28;20414;-63
2023/10/28 09:31:23;;;;;;;0.30;0.30;;;20.60;91.40;;;;;;4977343;28;20404;-65
2023/10/28 09:33:50;;;;;;;0.30;0.20;;;20.30;92.20;;;;;;4976751;28;20212;-63
2023/10/28 09:36:16;;;;;;;0.30;0.20;;;20.30;92.20;;;;;;4977187;28;20402;-65
2023/10/28 09:38:45;;;;;;;0.30;0.20;;;20.00;92.00;;;;;;4977101;28;20487;-66
2023/10/28 09:41:12;;;;;;;0.30;0.20;;;19.80;92.30;;;;;;4975705;28;20406;-65
2023/10/28 09:43:38;;;;;;;0.30;0.20;;;19.60;92.50;;;;;;4976710;28;20508;-67
2023/10/28 09:46:05;;;;;;;0.30;0.20;;;19.30;93.00;;;;;;4976720;28;20408;-62
2023/10/28 09:48:33;;;;;;;0.30;0.20;;;19.20;93.50;;;;;;4976989;28;20458;-65
2023/10/28 09:50:59;;;;;;;0.30;0.20;;;19.30;93.50;;;;;;4977063;28;20452;-66
2023/10/28 09:53:35;;;;;;;0.30;0.20;;;19.30;93.20;;;;;;4976736;28;20446;-69
2023/10/28 09:56:03;;;;;;;1.13;1.13;;;19.20;92.80;;;;;;4958466;28;20517;-65
2023/10/28 09:58:45;;;;;;;0.30;0.30;;;19.20;93.00;;;;;;4976987;28;20417;-68
2023/10/28 10:01:26;;;;;;;0.30;0.30;;;18.90;93.00;;;;;;4976688;28;20387;-63
2023/10/28 10:04:02;;;;;;;0.50;0.50;;;18.50;93.40;;;;;;4976058;28;20430;-67
2023/10/28 10:06:28;;;;;;;0.30;0.30;;;18.10;94.10;;;;;;4973127;28;20451;-67
2023/10/28 10:08:55;;;;;;;0.30;0.20;;;17.90;94.20;;;;;;4976829;28;20435;-65
2023/10/28 10:11:25;;;;;;;0.30;0.20;;;17.70;94.90;;;;;;4976304;28;20196;-65
2023/10/28 10:13:51;;;;;;;0.30;0.30;;;17.70;95.20;;;;;;4974451;28;20759;-67
2023/10/28 10:16:47;;;;;;;0.30;0.30;;;18.00;96.00;;;;;;4976199;28;20539;-65
2023/10/28 10:19:22;;;;;;;0.30;0.30;;;18.50;94.90;;;;;;4976410;28;20383;-64
2023/10/28 10:21:51;;;;;;;0.30;0.20;;;18.90;94.30;;;;;;4976577;28;20395;-67
2023/10/28 10:24:22;;;;;;;0.30;0.30;;;19.40;93.80;;;;;;4975825;28;20487;-66
2023/10/28 10:26:58;;;;;;;0.30;0.30;;;19.70;93.40;;;;;;4975571;28;20454;-64
2023/10/28 10:29:28;;;;;;;0.30;0.20;;;20.10;93.00;;;;;;4976257;28;20427;-68
2023/10/28 10:31:55;;;;;;;0.30;0.20;;;20.30;92.70;;;;;;4976451;28;20418;-66
2023/10/28 10:34:39;;;;;;;0.30;0.30;;;20.40;92.10;;;;;;4976019;28;20398;-66
2023/10/28 10:37:06;;;;;;;0.30;0.30;;;20.20;92.00;;;;;;4975485;28;20424;-66
2023/10/28 10:39:46;;;;;;;0.30;0.20;;;19.70;92.10;;;;;;4976075;28;20425;-65
2023/10/28 10:42:12;;;;;;;0.30;0.30;;;19.20;92.40;;;;;;4975183;28;20455;-62
2023/10/28 10:44:39;;;;;;;0.30;0.30;;;18.70;93.10;;;;;;4975555;28;20828;-63
2023/10/28 10:47:08;;;;;;;0.30;0.30;;;18.30;93.90;;;;;;4975028;28;20400;-64
2023/10/28 10:49:35;;;;;;;0.30;0.20;;;18.00;94.00;;;;;;4975666;28;20934;-66
2023/10/28 10:52:02;;;;;;;0.40;0.30;;;17.70;94.00;;;;;;4975768;28;20499;-67
2023/10/28 10:54:36;;;;;;;0.30;0.30;;;17.60;94.10;;;;;;4975347;28;20796;-66
2023/10/28 10:57:03;;;;;;;0.30;0.30;;;17.60;94.60;;;;;;4974970;28;20458;-65
2023/10/28 10:59:33;;;;;;;0.50;0.40;;;17.60;94.90;;;;;;4975406;28;20600;-68
2023/10/28 11:02:00;;;;;;;0.40;0.40;;;17.60;94.80;;;;;;4975659;28;20420;-66
2023/10/28 11:04:27;;;;;;;0.30;0.20;;;17.60;95.10;;;;;;4975093;28;20520;-66
2023/10/28 11:06:54;;;;;;;0.30;0.20;;;17.60;95.10;;;;;;4974853;28;20462;-65
2023/10/28 11:09:20;;;;;;;0.30;0.20;;;17.60;95.00;;;;;;4975540;28;20977;-64
2023/10/28 11:11:46;;;;;;;0.30;0.20;;;17.70;94.60;;;;;;4975201;28;20782;-64
2023/10/28 11:14:12;;;;;;;0.30;0.30;;;17.70;94.50;;;;;;4975108;28;20408;-66
2023/10/28 11:16:39;;;;;;;0.30;0.30;;;17.60;94.40;;;;;;4974970;28;20611;-66
2023/10/28 11:19:05;;;;;;;0.30;0.30;;;17.40;95.10;;;;;;4974979;28;20518;-63
2023/10/28 11:21:32;;;;;;;0.30;0.30;;;17.30;94.80;;;;;;4975357;28;20875;-67
2023/10/28 11:23:58;;;;;;;0.30;0.20;;;17.20;95.10;;;;;;4974715;28;20422;-66
2023/10/28 11:26:24;;;;;;;0.30;0.23;;;17.10;95.20;;;;;;4974769;28;20972;-64
2023/10/28 11:28:50;;;;;;;0.30;0.20;;;16.90;95.70;;;;;;4974769;28;20431;-65
2023/10/28 11:31:20;;;;;;;0.30;0.30;;;16.80;95.80;;;;;;4975400;28;20420;-67
2023/10/28 11:33:52;;;;;;;0.30;0.30;;;16.70;96.20;;;;;;4957486;28;20412;-65
2023/10/28 11:36:18;;;;;;;0.30;0.30;;;16.60;96.50;;;;;;4974684;28;20427;-68
2023/10/28 11:38:44;;;;;;;0.30;0.30;;;16.60;96.70;;;;;;4975061;28;20408;-66
2023/10/28 11:41:10;;;;;;;0.30;0.30;;;16.50;96.30;;;;;;4974951;28;20410;-64
2023/10/28 11:43:36;;;;;;;0.30;0.20;;;16.40;96.50;;;;;;4974079;28;20541;-68
2023/10/28 11:46:03;;;;;;;0.30;0.20;;;16.40;96.60;;;;;;4965652;28;20451;-67
2023/10/28 11:48:29;;;;;;;0.30;0.30;;;16.30;96.80;;;;;;4937198;29;20420;-67
2023/10/28 11:50:56;;;;;;;0.30;0.30;;;16.30;96.90;;;;;;4954409;29;20930;-65
2023/10/28 11:53:25;;;;;;;0.30;0.20;;;16.20;97.30;;;;;;4954579;28;20408;-63
2023/10/28 11:55:51;;;;;;;0.30;0.30;;;16.10;97.50;;;;;;4960058;28;20802;-65
2023/10/28 11:58:17;;;;;;;0.30;0.30;;;16.10;97.60;;;;;;4973509;28;20430;-64
2023/10/28 12:00:52;;;;;;;0.30;0.20;;;16.00;97.60;;;;;;4973591;28;20393;-63
2023/10/28 12:03:21;;;;;;;0.30;0.20;;;16.00;97.70;;;;;;4973746;28;20304;-64
2023/10/28 12:05:47;;;;;;;0.30;0.30;;;15.90;97.80;;;;;;4969140;28;20480;-64
2023/10/28 12:08:13;;;;;;;0.30;0.27;;;15.90;97.60;;;;;;4954541;29;20766;-66
2023/10/28 12:10:46;;;;;;;0.30;0.30;;;15.90;97.60;;;;;;4954327;29;20414;-65
2023/10/28 12:13:17;;;;;;;0.30;0.30;;;15.90;97.60;;;;;;4961274;28;20422;-65
2023/10/28 12:15:44;;;;;;;0.30;0.20;;;15.80;97.50;;;;;;4972682;28;20554;-66
2023/10/28 12:18:10;;;;;;;0.30;0.30;;;15.80;97.90;;;;;;4973728;28;20417;-67
2023/10/28 12:20:36;;;;;;;0.30;0.20;;;15.70;98.00;;;;;;4973724;28;20488;-66
2023/10/28 12:23:02;;;;;;;0.30;0.30;;;15.80;98.30;;;;;;4973458;28;20422;-66
2023/10/28 12:25:28;;;;;;;0.30;0.20;;;15.80;98.40;;;;;;4972851;28;20456;-65
2023/10/28 12:27:54;;;;;;;0.30;0.30;;;15.80;98.80;;;;;;4973198;28;20863;-65
2023/10/28 12:30:20;;;;;;;0.30;0.30;;;15.80;99.10;;;;;;4973764;28;20528;-67
2023/10/28 12:32:48;;;;;;;0.30;0.30;;;15.80;99.30;;;;;;4973278;28;20421;-65
2023/10/28 12:35:13;;;;;;;0.30;0.30;;;15.90;99.40;;;;;;4972943;28;20445;-65
2023/10/28 12:37:40;;;;;;;0.30;0.30;;;15.90;98.80;;;;;;4973079;28;20447;-69
2023/10/28 12:40:06;;;;;;;0.30;0.30;;;15.90;99.00;;;;;;4973465;28;20183;-69
2023/10/28 12:42:35;;;;;;;0.30;0.20;;;16.00;98.90;;;;;;4973283;28;20410;-72
2023/10/28 12:45:04;;;;;;;0.30;0.27;;;16.10;98.70;;;;;;4955259;28;20467;-67
2023/10/28 12:47:34;;;;;;;0.30;0.30;;;16.10;98.80;;;;;;4965559;28;20865;-63
2023/10/28 12:50:03;;;;;;;0.30;0.30;;;16.20;98.50;;;;;;4973520;28;20386;-64
2023/10/28 12:52:30;;;;;;;0.30;0.20;;;16.30;98.70;;;;;;4973488;28;20498;-68
2023/10/28 12:55:00;;;;;;;0.30;0.20;;;16.40;99.00;;;;;;4954478;28;20447;-67
2023/10/28 12:57:26;;;;;;;0.30;0.30;;;16.40;98.20;;;;;;4954974;29;20419;-61
2023/10/28 12:59:51;;;;;;;0.30;0.30;;;16.40;98.50;;;;;;4970813;28;20482;-64
2023/10/28 13:02:17;;;;;;;0.30;0.20;;;16.50;98.30;;;;;;4977900;28;20254;-64
2023/10/28 13:04:44;;;;;;;0.30;0.20;;;16.50;98.00;;;;;;4976623;28;20755;-64
2023/10/28 13:07:10;;;;;;;0.30;0.30;;;16.40;97.20;;;;;;4977721;28;20538;-67
2023/10/28 13:09:36;;;;;;;0.30;0.20;;;16.40;97.60;;;;;;4977937;28;20480;-64
2023/10/28 13:12:02;;;;;;;0.30;0.30;;;16.40;97.30;;;;;;4977833;28;20989;-66
2023/10/28 13:14:27;;;;;;;0.30;0.30;;;16.30;97.10;;;;;;4976778;28;20316;-65
2023/10/28 13:16:54;;;;;;;0.30;0.30;;;16.30;97.40;;;;;;4977661;28;20200;-69
2023/10/28 13:19:19;;;;;;;0.30;0.30;;;16.30;98.00;;;;;;4977303;28;20188;-66
2023/10/28 13:21:46;;;;;;;0.30;0.30;;;16.30;98.20;;;;;;4977735;28;20748;-65
2023/10/28 13:24:12;;;;;;;0.40;0.40;;;16.40;98.00;;;;;;4976554;28;20235;-68
2023/10/28 13:26:38;;;;;;;0.30;0.27;;;16.40;98.00;;;;;;4977414;28;20426;-67
2023/10/28 13:29:03;;;;;;;0.30;0.20;;;16.40;97.90;;;;;;4977127;28;20187;-64
2023/10/28 13:31:29;;;;;;;0.30;0.20;;;16.30;97.60;;;;;;4976410;28;20206;-65
2023/10/28 13:33:54;;;;;;;0.30;0.30;;;16.30;97.30;;;;;;4976140;28;20197;-66
2023/10/28 13:36:20;;;;;;;0.30;0.30;;;16.20;97.40;;;;;;4976089;28;20202;-65
2023/10/28 13:38:46;;;;;;;0.30;0.23;;;16.10;97.80;;;;;;4976968;28;20238;-67
2023/10/28 13:41:11;;;;;;;0.30;0.20;;;15.90;98.90;;;;;;4975993;28;20459;-66
2023/10/28 13:43:38;;;;;;;0.30;0.20;;;15.90;99.50;;;;;;4975393;28;20201;-66
2023/10/28 13:46:03;;;;;;;0.30;0.20;;;15.80;99.00;;;;;;4975955;28;20206;-64
2023/10/28 13:48:29;;;;;;;0.30;0.20;;;15.80;98.90;;;;;;4968261;28;20917;-66
2023/10/28 13:50:57;;;;;;;0.30;0.20;;;15.70;99.00;;;;;;4957853;29;20263;-67
2023/10/28 13:53:23;;;;;;;0.30;0.30;;;15.80;99.60;;;;;;4970357;28;20182;-63
2023/10/28 13:55:50;;;;;;;0.30;0.30;;;15.70;99.30;;;;;;4976338;28;21011;-63
2023/10/28 13:58:15;;;;;;;0.30;0.20;;;15.60;98.80;;;;;;4977034;28;20204;-64
2023/10/28 14:00:41;;;;;;;0.30;0.30;;;15.60;99.10;;;;;;4975665;28;20448;-64
2023/10/28 14:03:07;;;;;;;0.30;0.20;;;15.60;99.30;;;;;;4975626;28;20207;-64
2023/10/28 14:05:33;;;;;;;0.30;0.30;;;15.50;99.20;;;;;;4976306;28;20607;-64
2023/10/28 14:07:59;;;;;;;0.30;0.20;;;15.50;99.00;;;;;;4976695;28;20478;-62
2023/10/28 14:10:25;;;;;;;0.30;0.30;;;15.50;99.20;;;;;;4974520;28;20546;-62
2023/10/28 14:12:51;;;;;;;0.30;0.20;;;15.50;99.30;;;;;;4975758;28;20404;-61
2023/10/28 14:15:17;;;;;;;0.30;0.20;;;15.50;99.50;;;;;;4975593;28;20446;-61
2023/10/28 14:17:43;;;;;;;0.30;0.20;;;15.50;99.60;;;;;;4975886;28;20858;-63
2023/10/28 14:20:11;;;;;;;0.30;0.20;;;15.50;99.60;;;;;;4975470;28;20467;-62
2023/10/28 14:22:38;;;;;;;0.30;0.20;;;15.50;99.70;;;;;;4976391;28;20174;-63
2023/10/28 14:25:10;;;;;;;0.30;0.30;;;15.50;99.80;;;;;;4975213;28;20495;-60
2023/10/28 14:27:37;;;;;;;0.30;0.30;;;15.50;99.60;;;;;;4958387;28;20392;-64
2023/10/28 14:30:05;;;;;;;0.30;0.20;;;15.60;99.90;;;;;;4971979;28;20421;-63
2023/10/28 14:32:31;;;;;;;0.30;0.20;;;15.50;99.90;;;;;;4971792;28;20498;-62
2023/10/28 14:34:58;;;;;;;0.30;0.30;;;15.60;99.90;;;;;;4975617;28;20452;-63
2023/10/28 14:37:24;;;;;;;0.30;0.20;;;15.50;99.90;;;;;;4975792;28;20197;-65
2023/10/28 14:39:49;;;;;;;0.30;0.30;;;15.50;99.90;;;;;;4975105;28;20444;-63
2023/10/28 14:42:15;;;;;;;0.30;0.30;;;15.40;99.90;;;;;;4975358;28;20561;-63
2023/10/28 14:44:43;;;;;;;0.30;0.30;;;15.40;99.90;;;;;;4974537;28;20254;-61
2023/10/28 14:47:09;;;;;;;0.30;0.27;;;15.30;99.90;;;;;;4975267;28;20177;-63
2023/10/28 14:49:34;;;;;;;0.30;0.20;;;15.20;99.90;;;;;;4974612;28;20520;-61
2023/10/28 14:52:00;;;;;;;0.30;0.30;;;15.10;99.90;;;;;;4974897;28;20635;-63
2023/10/28 14:54:29;;;;;;;0.30;0.30;;;15.10;99.90;;;;;;4975014;28;20184;-64
2023/10/28 14:56:55;;;;;;;0.30;0.30;;;15.10;99.90;;;;;;4975410;28;20196;-62
2023/10/28 14:59:21;;;;;;;0.30;0.30;;;15.00;99.90;;;;;;4974868;28;20438;-64
2023/10/28 15:01:46;;;;;;;0.30;0.20;;;15.00;99.90;;;;;;4975016;28;20446;-62
2023/10/28 15:04:12;;;;;;;0.30;0.30;;;15.00;99.90;;;;;;4973886;28;20459;-63
2023/10/28 15:06:38;;;;;;;0.30;0.20;;;15.00;99.90;;;;;;4967322;28;20300;-66
2023/10/28 15:09:04;;;;;;;0.30;0.30;;;14.90;99.90;;;;;;4974478;28;20212;-65
2023/10/28 15:11:32;;;;;;;0.30;0.30;;;14.90;99.90;;;;;;4973635;28;20927;-64
2023/10/28 15:13:58;;;;;;;0.30;0.20;;;14.90;99.90;;;;;;4967788;28;20483;-62
2023/10/28 15:16:23;;;;;;;0.30;0.30;;;14.80;99.90;;;;;;4974825;28;20451;-62
2023/10/28 15:18:49;;;;;;;0.30;0.30;;;14.80;99.90;;;;;;4975048;28;20192;-63
2023/10/28 15:21:16;;;;;;;0.30;0.20;;;14.80;99.90;;;;;;4974681;28;20180;-62
2023/10/28 15:23:43;;;;;;;0.30;0.20;;;14.80;99.90;;;;;;4974280;28;20641;-62
2023/10/28 15:26:14;;;;;;;0.30;0.20;;;14.70;99.90;;;;;;4974530;28;20526;-63
2023/10/28 15:28:41;;;;;;;0.30;0.30;;;14.70;99.90;;;;;;4974665;28;20826;-62
2023/10/28 15:31:13;;;;;;;0.40;0.40;;;14.70;99.90;;;;;;4974198;28;20427;-64
2023/10/28 15:33:40;;;;;;;0.30;0.20;;;14.70;99.90;;;;;;4957735;28;20401;-62
2023/10/28 15:36:10;;;;;;;0.30;0.20;;;14.60;99.90;;;;;;4974095;28;20864;-63
2023/10/28 15:38:35;;;;;;;0.30;0.30;;;14.60;99.90;;;;;;4974091;28;20436;-63
2023/10/28 15:41:01;;;;;;;0.30;0.20;;;14.50;99.90;;;;;;4973748;28;20434;-62
2023/10/28 15:43:31;;;;;;;0.30;0.20;;;14.50;99.90;;;;;;4974398;28;20311;-64
2023/10/28 15:45:56;;;;;;;0.63;0.53;;;14.50;99.90;;;;;;4970407;28;20501;-64
2023/10/28 15:48:22;;;;;;;0.47;0.47;;;14.50;99.90;;;;;;4966523;28;20509;-61
2023/10/28 15:50:49;;;;;;;0.40;0.40;;;14.40;99.90;;;;;;4974561;28;20172;-64
2023/10/28 15:53:15;;;;;;;0.73;0.60;;;14.40;99.90;;;;;;4956107;28;20409;-63
2023/10/28 15:55:41;;;;;;;0.60;0.60;;;14.40;99.90;;;;;;4973821;28;20605;-65
2023/10/28 15:58:08;;;;;;;0.80;0.67;;;14.40;99.90;;;;;;4974029;28;20463;-62
2023/10/28 16:00:35;;;;;;;0.30;0.30;;;14.40;99.90;;;;;;4974358;28;20654;-64
2023/10/28 16:03:00;;;;;;;0.30;0.30;;;14.40;99.90;;;;;;4974243;28;20485;-64
2023/10/28 16:05:29;;;;;;;0.30;0.20;;;14.40;99.90;;;;;;4973558;28;20470;-62
2023/10/28 16:07:55;;;;;;;0.30;0.30;;;14.40;99.90;;;;;;4972903;28;20246;-61
2023/10/28 16:10:22;;;;;;;0.30;0.20;;;14.40;99.90;;;;;;4966139;28;20470;-62
2023/10/28 16:12:48;;;;;;;0.30;0.20;;;14.40;99.90;;;;;;4974364;28;20921;-61
2023/10/28 16:15:14;;;;;;;0.30;0.30;;;14.40;99.90;;;;;;4966432;28;20452;-62
2023/10/28 16:17:40;;;;;;;0.30;0.30;;;14.40;99.90;;;;;;4972424;28;20470;-62
2023/10/28 16:20:07;;;;;;;0.30;0.30;;;14.50;99.90;;;;;;4973505;28;20435;-62
2023/10/28 16:22:33;;;;;;;0.70;0.50;;;14.50;99.90;;;;;;4973275;28;20466;-63
2023/10/28 16:24:59;;;;;;;0.30;0.20;;;14.50;99.90;;;;;;4971487;28;20491;-66
2023/10/28 16:27:25;;;;;;;0.30;0.30;;;14.50;99.90;;;;;;4971617;28;20398;-64
2023/10/28 16:29:51;;;;;;;0.30;0.20;;;14.60;99.90;;;;;;4973442;28;20490;-63
2023/10/28 16:32:16;;;;;;;0.30;0.30;;;14.60;99.90;;;;;;4972905;28;20176;-63
2023/10/28 16:34:45;;;;;;;0.30;0.20;;;14.70;99.90;;;;;;4975024;28;20188;-63
2023/10/28 16:37:11;;;;;;;0.30;0.30;;;14.70;99.90;;;;;;4977645;28;20262;-61
2023/10/28 16:39:37;;;;;;;0.30;0.30;;;14.60;99.90;;;;;;4977559;28;20442;-62
2023/10/28 16:42:03;;;;;;;0.30;0.30;;;14.60;99.90;;;;;;4978035;28;20423;-63
2023/10/28 16:44:28;;;;;;;0.30;0.30;;;14.60;99.90;;;;;;4977132;28;20295;-61
2023/10/28 16:46:54;;;;;;;0.30;0.30;;;14.60;99.90;;;;;;4977201;28;20806;-62
2023/10/28 16:49:20;;;;;;;0.30;0.20;;;14.60;99.90;;;;;;4976535;28;20192;-63
2023/10/28 16:51:47;;;;;;;0.30;0.20;;;14.60;99.90;;;;;;4977217;28;20247;-64